createdAt,value
2022-08-22T00:02:23.685Z,62.37
2022-08-22T00:02:42.672Z,57.06
2022-08-22T00:02:49.335Z,59.09
2022-08-22T00:02:58.997Z,61.98
2022-08-22T00:04:43.464Z,62.39
2022-08-22T00:07:16.184Z,62.47
2022-08-22T00:09:29.352Z,62.43
2022-08-22T00:11:49.843Z,62.83
2022-08-22T00:14:10.285Z,63.15
2022-08-22T00:16:29.994Z,63.23
2022-08-22T00:18:49.728Z,62.95
2022-08-22T00:21:14.560Z,62.55
2022-08-22T00:23:23.030Z,62.91
2022-08-22T00:25:36.831Z,63.19
2022-08-22T00:27:55.008Z,63.35
2022-08-22T00:30:05.807Z,63.39
2022-08-22T00:32:20.664Z,63.23
2022-08-22T00:34:54.203Z,63.46
2022-08-22T00:37:29.067Z,63.43
2022-08-22T00:39:36.558Z,63.72
2022-08-22T00:41:49.623Z,64.22
2022-08-22T00:43:51.465Z,64.65
2022-08-22T00:46:38.150Z,64.61
2022-08-22T00:49:08.437Z,64.23
2022-08-22T00:51:39.715Z,63.91
2022-08-22T00:53:46.487Z,63.37
2022-08-22T00:56:20.052Z,62.89
2022-08-22T00:58:30.741Z,63.45
2022-08-22T01:00:39.387Z,64.26
2022-08-22T01:03:05.814Z,64.84
2022-08-22T01:05:30.236Z,64.69
2022-08-22T01:07:52.812Z,65.86
2022-08-22T01:10:00.536Z,66.08
2022-08-22T01:15:23.975Z,64.38
2022-08-22T01:17:25.639Z,63.92
2022-08-22T01:19:55.554Z,63.54
2022-08-22T01:22:31.591Z,63.72
2022-08-22T01:25:13.919Z,64.05
2022-08-22T01:27:36.498Z,64.20
2022-08-22T01:29:50.027Z,64.38
2022-08-22T01:32:14.274Z,64.58
2022-08-22T01:34:34.110Z,64.40
2022-08-22T01:37:12.739Z,64.20
2022-08-22T01:39:49.213Z,64.15
2022-08-22T01:42:05.901Z,63.84
2022-08-22T01:44:34.129Z,64.13
2022-08-22T01:47:00.295Z,64.51
2022-08-22T01:49:10.689Z,65.30
2022-08-22T01:51:15.167Z,65.38
2022-08-22T01:53:39.889Z,64.83
2022-08-22T01:55:53.031Z,64.95
2022-08-22T01:58:21.153Z,65.38
2022-08-22T02:00:35.325Z,65.55
2022-08-22T02:02:58.683Z,65.70
2022-08-22T02:05:24.686Z,65.96
2022-08-22T02:07:57.296Z,66.13
2022-08-22T02:10:11.665Z,65.96
2022-08-22T02:12:21.982Z,66.07
2022-08-22T02:14:32.957Z,65.95
2022-08-22T02:16:44.343Z,65.61
2022-08-22T02:18:54.860Z,65.70
2022-08-22T02:21:45.083Z,66.18
2022-08-22T02:23:55.956Z,66.31
2022-08-22T02:26:08.551Z,66.48
2022-08-22T02:28:12.879Z,66.14
2022-08-22T02:30:26.552Z,66.05
2022-08-22T02:32:40.457Z,66.36
2022-08-22T02:34:42.355Z,66.05
2022-08-22T02:36:48.855Z,66.12
2022-08-22T02:39:16.303Z,66.13
2022-08-22T02:41:38.355Z,66.00
2022-08-22T02:43:58.175Z,65.87
2022-08-22T02:46:03.937Z,65.55
2022-08-22T02:48:32.593Z,65.14
2022-08-22T02:50:58.139Z,65.19
2022-08-22T02:53:02.533Z,65.32
2022-08-22T02:55:35.698Z,65.99
2022-08-22T02:57:45.826Z,66.05
2022-08-22T03:00:31.844Z,65.79
2022-08-22T03:02:38.198Z,65.51
2022-08-22T03:04:39.810Z,65.52
2022-08-22T03:07:02.146Z,65.63
2022-08-22T03:09:16.153Z,65.39
2022-08-22T03:11:22.271Z,65.25
2022-08-22T03:13:38.067Z,65.90
2022-08-22T03:15:55.207Z,66.38
2022-08-22T03:18:08.397Z,66.70
2022-08-22T03:20:14.849Z,66.96
2022-08-22T03:22:30.129Z,66.69
2022-08-22T03:25:09.920Z,66.97
2022-08-22T03:27:32.169Z,66.90
2022-08-22T03:29:38.461Z,66.84
2022-08-22T03:32:05.293Z,67.22
2022-08-22T03:34:23.585Z,66.85
2022-08-22T03:36:27.421Z,66.97
2022-08-22T03:38:34.751Z,66.71
2022-08-22T03:40:53.965Z,66.39
2022-08-22T03:43:38.231Z,66.16
2022-08-22T03:45:54.755Z,66.27
2022-08-22T03:48:05.050Z,65.94
2022-08-22T03:50:38.754Z,66.34
2022-08-22T03:53:03.096Z,66.40
2022-08-22T03:55:37.961Z,66.74
2022-08-22T03:58:23.911Z,67.03
2022-08-22T04:00:58.703Z,67.08
2022-08-22T04:03:06.441Z,67.23
2022-08-22T04:05:31.971Z,66.98
2022-08-22T04:07:50.253Z,67.18
2022-08-22T04:09:57.851Z,67.11
2022-08-22T04:12:18.552Z,67.28
2022-08-22T04:14:59.619Z,67.85
2022-08-22T04:17:01.353Z,68.05
2022-08-22T04:19:15.965Z,68.25
2022-08-22T04:21:53.055Z,68.24
2022-08-22T04:24:13.215Z,67.74
2022-08-22T04:26:27.167Z,67.35
2022-08-22T04:28:34.689Z,67.29
2022-08-22T04:31:17.318Z,67.33
2022-08-22T04:33:30.614Z,67.42
2022-08-22T04:35:42.082Z,67.22
2022-08-22T04:37:53.941Z,67.09
2022-08-22T04:40:16.906Z,67.19
2022-08-22T04:42:35.858Z,67.26
2022-08-22T04:44:43.435Z,67.57
2022-08-22T04:47:00.100Z,67.73
2022-08-22T04:49:08.163Z,67.83
2022-08-22T04:51:40.390Z,67.77
2022-08-22T04:53:48.182Z,68.14
2022-08-22T04:55:58.997Z,68.16
2022-08-22T04:58:26.947Z,68.12
2022-08-22T05:00:54.605Z,68.13
2022-08-22T05:02:57.597Z,68.40
2022-08-22T05:05:21.994Z,69.18
2022-08-22T05:07:35.805Z,69.33
2022-08-22T05:09:43.291Z,69.61
2022-08-22T05:11:49.291Z,69.98
2022-08-22T05:13:55.813Z,70.26
2022-08-22T05:16:01.392Z,70.10
2022-08-22T05:18:30.066Z,70.02
2022-08-22T05:20:32.155Z,69.98
2022-08-22T05:22:37.830Z,69.80
2022-08-22T05:24:46.495Z,69.92
2022-08-22T05:26:53.403Z,69.91
2022-08-22T05:29:02.431Z,69.98
2022-08-22T05:31:18.695Z,70.51
2022-08-22T05:33:29.435Z,70.63
2022-08-22T05:35:47.192Z,70.91
2022-08-22T05:37:53.353Z,70.65
2022-08-22T05:39:58.521Z,70.23
2022-08-22T05:42:06.912Z,69.91
2022-08-22T05:44:20.632Z,69.89
2022-08-22T05:46:43.211Z,70.08
2022-08-22T05:48:48.406Z,70.03
2022-08-22T05:51:23.506Z,69.73
2022-08-22T05:53:30.939Z,69.66
2022-08-22T05:56:00.033Z,69.81
2022-08-22T05:58:39.034Z,70.19
2022-08-22T06:00:43.724Z,70.73
2022-08-22T06:03:05.163Z,71.27
2022-08-22T06:06:00.143Z,70.90
2022-08-22T06:08:20.382Z,70.89
2022-08-22T06:10:39.053Z,71.08
2022-08-22T06:13:05.053Z,71.89
2022-08-22T06:15:20.977Z,71.68
2022-08-22T06:21:19.086Z,70.85
2022-08-22T06:24:00.108Z,70.67
2022-08-22T06:26:02.472Z,70.25
2022-08-22T06:28:08.297Z,69.94
2022-08-22T06:30:13.737Z,69.68
2022-08-22T06:32:59.482Z,69.46
2022-08-22T06:35:08.048Z,69.54
2022-08-22T06:37:17.037Z,69.74
2022-08-22T06:39:20.525Z,69.78
2022-08-22T06:41:25.636Z,69.43
2022-08-22T06:43:38.140Z,69.24
2022-08-22T06:45:40.695Z,69.04
2022-08-22T06:47:53.751Z,69.04
2022-08-22T06:50:02.127Z,69.05
2022-08-22T06:52:08.544Z,68.96
2022-08-22T06:54:16.977Z,68.75
2022-08-22T06:56:40.829Z,68.87
2022-08-22T06:58:46.127Z,68.96
2022-08-22T07:01:11.107Z,68.89
2022-08-22T07:03:20.459Z,68.71
2022-08-22T07:05:26.638Z,68.63
2022-08-22T07:07:28.697Z,68.78
2022-08-22T07:09:37.154Z,68.86
2022-08-22T07:11:41.079Z,69.25
2022-08-22T07:13:45.852Z,69.15
2022-08-22T07:15:54.086Z,69.43
2022-08-22T07:18:01.857Z,69.38
2022-08-22T07:20:19.074Z,69.12
2022-08-22T07:22:30.330Z,68.92
2022-08-22T07:24:33.078Z,68.53
2022-08-22T07:27:02.261Z,68.81
2022-08-22T07:29:23.094Z,68.85
2022-08-22T07:32:07.585Z,68.63
2022-08-22T07:34:23.164Z,68.61
2022-08-22T07:36:50.900Z,68.69
2022-08-22T07:39:00.984Z,68.60
2022-08-22T07:41:11.739Z,68.04
2022-08-22T07:44:03.121Z,67.37
2022-08-22T07:46:30.926Z,67.35
2022-08-22T07:48:48.639Z,67.11
2022-08-22T07:51:05.780Z,67.49
2022-08-22T07:53:20.825Z,67.75
2022-08-22T07:55:24.726Z,67.77
2022-08-22T07:57:35.652Z,68.18
2022-08-22T07:59:39.338Z,67.90
2022-08-22T08:01:49.484Z,67.97
2022-08-22T08:03:59.110Z,67.57
2022-08-22T08:06:01.565Z,67.80
2022-08-22T08:08:13.775Z,67.76
2022-08-22T08:10:24.087Z,67.72
2022-08-22T08:12:38.676Z,68.09
2022-08-22T08:14:42.574Z,67.64
2022-08-22T08:16:49.742Z,67.16
2022-08-22T08:18:57.042Z,67.39
2022-08-22T08:21:03.624Z,67.84
2022-08-22T08:23:09.180Z,67.63
2022-08-22T08:25:15.043Z,67.70
2022-08-22T08:27:40.189Z,66.99
2022-08-22T08:29:48.219Z,67.19
2022-08-22T08:31:49.951Z,67.19
2022-08-22T08:33:59.066Z,66.40
2022-08-22T08:36:11.324Z,65.47
2022-08-22T08:38:16.556Z,64.87
2022-08-22T08:40:24.192Z,65.24
2022-08-22T08:42:31.795Z,64.62
2022-08-22T08:44:37.459Z,64.12
2022-08-22T08:47:07.627Z,64.13
2022-08-22T08:59:10.820Z,62.60
2022-08-22T09:04:53.719Z,62.69
2022-08-22T09:10:49.155Z,62.30
2022-08-22T09:12:56.461Z,62.10
2022-08-22T09:15:31.003Z,62.09
2022-08-22T09:17:48.023Z,62.10
2022-08-22T09:20:19.419Z,61.92
2022-08-22T09:22:33.514Z,62.28
2022-08-22T09:25:11.895Z,63.20
2022-08-22T09:27:31.304Z,63.88
2022-08-22T09:29:33.032Z,63.70
2022-08-22T09:31:52.649Z,64.25
2022-08-22T09:34:05.943Z,64.04
2022-08-22T09:36:18.071Z,63.75
2022-08-22T09:38:36.969Z,64.43
2022-08-22T09:40:52.027Z,63.97
2022-08-22T09:43:07.298Z,63.59
2022-08-22T09:45:32.794Z,63.73
2022-08-22T09:47:50.217Z,63.16
2022-08-22T09:49:58.963Z,63.32
2022-08-22T09:52:33.803Z,62.95
2022-08-22T09:54:48.310Z,62.58
2022-08-22T09:57:09.725Z,62.17
2022-08-22T09:59:46.078Z,62.47
2022-08-22T10:02:00.946Z,61.59
2022-08-22T10:04:56.369Z,61.64
2022-08-22T10:07:17.981Z,61.07
2022-08-22T10:09:31.374Z,60.94
2022-08-22T10:11:45.687Z,61.44
2022-08-22T10:14:01.212Z,61.45
2022-08-22T10:16:39.517Z,61.40
2022-08-22T10:18:54.721Z,60.94
2022-08-22T10:21:23.262Z,61.11
2022-08-22T10:24:06.936Z,61.11
2022-08-22T10:26:23.064Z,60.84
2022-08-22T10:28:49.245Z,60.74
2022-08-22T10:31:25.354Z,60.50
2022-08-22T10:33:33.440Z,60.45
2022-08-22T10:36:23.849Z,60.79
2022-08-22T10:38:27.853Z,61.14
2022-08-22T10:40:38.689Z,61.35
2022-08-22T10:42:53.654Z,61.53
2022-08-22T10:45:23.699Z,61.64
2022-08-22T10:47:58.789Z,62.00
2022-08-22T10:50:10.914Z,62.23
2022-08-22T10:52:21.601Z,62.53
2022-08-22T10:55:09.641Z,62.59
2022-08-22T10:57:34.016Z,62.57
2022-08-22T11:00:45.986Z,62.96
2022-08-22T11:02:54.738Z,62.84
2022-08-22T11:08:56.465Z,62.49
2022-08-22T11:11:07.179Z,62.68
2022-08-22T11:13:42.255Z,62.68
2022-08-22T11:16:09.088Z,62.94
2022-08-22T11:18:40.268Z,63.21
2022-08-22T11:20:47.673Z,63.45
2022-08-22T11:23:01.326Z,63.65
2022-08-22T11:25:26.882Z,64.06
2022-08-22T11:28:11.686Z,64.44
2022-08-22T11:30:18.346Z,64.38
2022-08-22T11:32:42.420Z,64.62
2022-08-22T11:34:50.088Z,65.09
2022-08-22T11:36:58.552Z,65.37
2022-08-22T11:39:17.977Z,65.63
2022-08-22T11:41:58.808Z,65.96
2022-08-22T11:44:18.470Z,66.55
2022-08-22T11:46:31.237Z,66.21
2022-08-22T11:48:47.873Z,66.47
2022-08-22T11:51:15.741Z,66.80
2022-08-22T11:53:38.902Z,67.26
2022-08-22T11:56:07.690Z,67.33
2022-08-22T11:58:21.278Z,67.43
2022-08-22T12:00:44.390Z,67.52
2022-08-22T12:03:32.959Z,67.25
2022-08-22T12:05:43.821Z,67.32
2022-08-22T12:08:11.433Z,67.64
2022-08-22T12:10:20.211Z,67.62
2022-08-22T12:12:24.845Z,67.44
2022-08-22T12:14:54.685Z,67.91
2022-08-22T12:17:55.558Z,68.42
2022-08-22T12:20:27.320Z,67.94
2022-08-22T12:22:54.148Z,68.27
2022-08-22T12:25:04.739Z,68.54
2022-08-22T12:27:12.332Z,68.81
2022-08-22T12:29:33.525Z,68.92
2022-08-22T12:31:42.312Z,69.10
2022-08-22T12:34:04.782Z,69.11
2022-08-22T12:36:18.493Z,69.39
2022-08-22T12:38:27.846Z,69.50
2022-08-22T12:41:07.304Z,69.71
2022-08-22T12:43:28.541Z,70.27
2022-08-22T12:45:56.113Z,70.35
2022-08-22T12:48:27.860Z,70.63
2022-08-22T12:50:57.243Z,70.03
2022-08-22T12:53:18.131Z,69.85
2022-08-22T12:55:41.043Z,70.28
2022-08-22T12:57:50.568Z,69.99
2022-08-22T13:00:05.548Z,69.46
2022-08-22T13:02:24.619Z,69.71
2022-08-22T13:04:33.348Z,69.75
2022-08-22T13:06:42.202Z,69.76
2022-08-22T13:08:51.272Z,69.09
2022-08-22T13:11:01.469Z,69.29
2022-08-22T13:13:12.043Z,69.17
2022-08-22T13:19:17.964Z,69.32
2022-08-22T13:21:24.110Z,69.16
2022-08-22T13:23:34.325Z,69.32
2022-08-22T13:26:08.685Z,69.55
2022-08-22T13:28:12.339Z,69.67
2022-08-22T13:30:38.018Z,69.94
2022-08-22T13:32:45.959Z,69.93
2022-08-22T13:34:52.398Z,69.74
2022-08-22T13:36:57.932Z,69.69
2022-08-22T13:39:35.340Z,69.74
2022-08-22T13:41:44.405Z,70.73
2022-08-22T13:44:17.652Z,71.28
2022-08-22T13:46:23.527Z,71.33
2022-08-22T13:48:49.901Z,70.92
2022-08-22T13:51:08.080Z,70.28
2022-08-22T13:53:48.944Z,69.70
2022-08-22T13:56:15.413Z,70.22
2022-08-22T13:58:39.549Z,69.90
2022-08-22T14:01:37.930Z,70.58
2022-08-22T14:04:01.046Z,70.58
2022-08-22T14:06:36.874Z,70.34
2022-08-22T14:08:36.371Z,70.17
2022-08-22T14:10:41.938Z,70.19
2022-08-22T14:12:56.301Z,70.23
2022-08-22T14:15:00.756Z,70.30
2022-08-22T14:17:04.295Z,70.69
2022-08-22T14:19:13.153Z,70.12
2022-08-22T14:21:26.583Z,70.28
2022-08-22T14:23:29.386Z,70.14
2022-08-22T14:25:38.066Z,70.66
2022-08-22T14:27:59.566Z,70.51
2022-08-22T14:30:13.926Z,71.15
2022-08-22T14:32:22.664Z,70.21
2022-08-22T14:34:29.025Z,70.32
2022-08-22T14:36:45.813Z,69.92
2022-08-22T14:38:53.406Z,70.06
2022-08-22T14:41:01.012Z,70.29
2022-08-22T14:43:22.197Z,70.43
2022-08-22T14:45:30.515Z,70.25
2022-08-22T14:48:29.293Z,69.86
2022-08-22T14:50:50.219Z,69.72
2022-08-22T14:53:08.035Z,69.37
2022-08-22T14:55:15.736Z,69.76
2022-08-22T14:57:20.206Z,70.10
2022-08-22T14:59:27.099Z,69.96
2022-08-22T15:01:32.906Z,69.75
2022-08-22T15:03:38.027Z,69.90
2022-08-22T15:05:45.562Z,69.87
2022-08-22T15:07:54.487Z,69.60
2022-08-22T15:10:11.924Z,67.73
2022-08-22T15:12:26.787Z,67.20
2022-08-22T15:14:37.177Z,67.30
2022-08-22T15:16:45.454Z,67.20
2022-08-22T15:18:51.803Z,66.71
2022-08-22T15:21:04.031Z,66.48
2022-08-22T15:23:19.961Z,66.61
2022-08-22T15:25:42.795Z,66.95
2022-08-22T15:27:54.492Z,66.84
2022-08-22T15:30:00.073Z,67.38
2022-08-22T15:32:03.365Z,67.49
2022-08-22T15:34:08.675Z,68.05
2022-08-22T15:36:15.894Z,68.36
2022-08-22T15:38:42.088Z,67.80
2022-08-22T15:40:49.982Z,68.05
2022-08-22T15:42:58.161Z,67.83
2022-08-22T15:45:00.869Z,67.55
2022-08-22T15:47:34.869Z,68.09
2022-08-22T15:49:58.321Z,68.16
2022-08-22T15:52:03.187Z,68.22
2022-08-22T15:54:24.491Z,67.95
2022-08-22T15:56:37.650Z,68.06
2022-08-22T15:58:53.221Z,67.92
2022-08-22T16:01:19.187Z,67.54
2022-08-22T16:03:31.877Z,67.71
2022-08-22T16:05:50.835Z,68.13
2022-08-22T16:08:11.036Z,68.66
2022-08-22T16:10:21.795Z,68.68
2022-08-22T16:12:31.265Z,68.71
2022-08-22T16:14:35.971Z,68.78
2022-08-22T16:16:50.015Z,68.51
2022-08-22T16:18:51.675Z,67.95
2022-08-22T16:20:54.385Z,67.94
2022-08-22T16:22:58.799Z,68.25
2022-08-22T16:25:02.746Z,67.94
2022-08-22T16:27:22.717Z,68.15
2022-08-22T16:29:41.505Z,67.98
2022-08-22T16:31:46.461Z,68.45
2022-08-22T16:33:48.193Z,69.08
2022-08-22T16:36:14.955Z,69.19
2022-08-22T16:38:30.192Z,69.36
2022-08-22T16:40:46.050Z,68.47
2022-08-22T16:43:09.855Z,68.73
2022-08-22T16:45:21.870Z,68.97
2022-08-22T16:47:54.549Z,68.74
2022-08-22T16:50:24.388Z,68.87
2022-08-22T16:52:28.955Z,68.93
2022-08-22T16:54:46.355Z,68.65
2022-08-22T16:57:07.769Z,69.28
2022-08-22T16:59:23.876Z,69.01
2022-08-22T17:01:29.444Z,69.25
2022-08-22T17:04:08.537Z,69.42
2022-08-22T17:06:32.269Z,69.42
2022-08-22T17:08:36.943Z,68.94
2022-08-22T17:11:08.079Z,69.20
2022-08-22T17:13:26.834Z,69.27
2022-08-22T17:15:48.130Z,69.90
2022-08-22T17:18:21.849Z,69.05
2022-08-22T17:20:45.300Z,68.90
2022-08-22T17:22:58.146Z,69.88
2022-08-22T17:25:14.992Z,69.59
2022-08-22T17:27:34.955Z,69.59
2022-08-22T17:29:53.755Z,69.72
2022-08-22T17:32:10.798Z,69.51
2022-08-22T17:34:21.518Z,69.64
2022-08-22T17:36:27.213Z,69.57
2022-08-22T17:38:48.040Z,69.15
2022-08-22T17:41:04.787Z,69.18
2022-08-22T17:43:48.524Z,69.68
2022-08-22T17:45:56.609Z,69.90
2022-08-22T17:48:05.890Z,69.97
2022-08-22T17:50:20.790Z,70.10
2022-08-22T17:52:28.362Z,69.55
2022-08-22T17:54:45.943Z,69.89
2022-08-22T17:57:05.281Z,70.10
2022-08-22T17:59:20.928Z,69.97
2022-08-22T18:01:44.093Z,69.87
2022-08-22T18:03:59.130Z,70.05
2022-08-22T18:06:09.283Z,69.97
2022-08-22T18:10:48.012Z,69.73
2022-08-22T18:13:23.708Z,69.83
2022-08-22T18:15:43.897Z,69.82
2022-08-22T18:18:03.503Z,69.68
2022-08-22T18:20:16.394Z,69.19
2022-08-22T18:22:20.236Z,69.16
2022-08-22T18:24:45.009Z,69.08
2022-08-22T18:26:52.921Z,69.56
2022-08-22T18:29:06.197Z,69.46
2022-08-22T18:31:29.853Z,69.60
2022-08-22T18:33:50.236Z,69.52
2022-08-22T18:36:03.855Z,70.21
2022-08-22T18:38:24.954Z,70.09
2022-08-22T18:40:49.675Z,69.72
2022-08-22T18:43:04.417Z,70.32
2022-08-22T18:45:06.560Z,70.10
2022-08-22T18:47:16.333Z,69.93
2022-08-22T18:49:20.935Z,70.05
2022-08-22T18:51:28.418Z,70.22
2022-08-22T18:53:45.482Z,70.23
2022-08-22T18:55:56.233Z,70.39
2022-08-22T18:58:00.887Z,70.64
2022-08-22T19:00:17.180Z,70.77
2022-08-22T19:02:55.596Z,70.59
2022-08-22T19:05:17.727Z,70.67
2022-08-22T19:07:28.312Z,70.66
2022-08-22T19:09:50.815Z,70.48
2022-08-22T19:11:58.647Z,70.56
2022-08-22T19:14:31.701Z,71.01
2022-08-22T19:16:56.066Z,71.32
2022-08-22T19:19:02.190Z,71.94
2022-08-22T19:21:39.962Z,72.19
2022-08-22T19:23:48.099Z,71.92
2022-08-22T19:26:38.041Z,71.87
2022-08-22T19:28:39.749Z,72.23
2022-08-22T19:30:49.570Z,72.36
2022-08-22T19:32:51.206Z,72.18
2022-08-22T19:35:21.641Z,72.12
2022-08-22T19:37:32.281Z,72.25
2022-08-22T19:39:41.013Z,72.63
2022-08-22T19:41:53.835Z,72.25
2022-08-22T19:43:55.507Z,72.62
2022-08-22T19:45:59.949Z,72.52
2022-08-22T19:48:11.741Z,72.52
2022-08-22T19:50:18.502Z,72.57
2022-08-22T19:52:27.215Z,72.50
2022-08-22T19:54:30.470Z,72.84
2022-08-22T19:56:41.105Z,72.82
2022-08-22T19:58:50.571Z,72.90
2022-08-22T20:00:59.972Z,73.24
2022-08-22T20:03:13.087Z,73.12
2022-08-22T20:05:57.492Z,73.54
2022-08-22T20:08:13.648Z,74.05
2022-08-22T20:10:27.593Z,73.42
2022-08-22T20:12:32.399Z,73.45
2022-08-22T20:14:36.982Z,73.45
2022-08-22T20:16:58.514Z,73.51
2022-08-22T20:19:07.659Z,73.50
2022-08-22T20:21:09.767Z,73.09
2022-08-22T20:23:27.127Z,73.27
2022-08-22T20:25:49.403Z,73.36
2022-08-22T20:27:53.476Z,72.98
2022-08-22T20:30:16.530Z,72.98
2022-08-22T20:32:21.214Z,72.55
2022-08-22T20:34:29.212Z,72.32
2022-08-22T20:36:31.169Z,72.59
2022-08-22T20:38:32.771Z,73.13
2022-08-22T20:40:56.527Z,72.90
2022-08-22T20:43:23.161Z,72.85
2022-08-22T20:45:29.611Z,73.05
2022-08-22T20:47:41.146Z,73.44
2022-08-22T20:49:47.428Z,73.51
2022-08-22T20:51:57.541Z,73.40
2022-08-22T20:54:15.954Z,73.40
2022-08-22T20:56:32.016Z,74.10
2022-08-22T20:58:38.517Z,73.86
2022-08-22T21:00:44.198Z,74.07
2022-08-22T21:03:02.109Z,74.00
2022-08-22T21:05:11.738Z,74.09
2022-08-22T21:07:31.100Z,73.94
2022-08-22T21:09:51.353Z,74.67
2022-08-22T21:11:58.998Z,73.72
2022-08-22T21:14:17.567Z,74.31
2022-08-22T21:16:22.717Z,74.33
2022-08-22T21:18:26.562Z,74.05
2022-08-22T21:20:32.916Z,73.83
2022-08-22T21:22:34.726Z,73.97
2022-08-22T21:24:39.235Z,73.91
2022-08-22T21:26:59.346Z,74.22
2022-08-22T21:29:07.457Z,74.38
2022-08-22T21:31:15.358Z,74.17
2022-08-22T21:33:23.749Z,74.34
2022-08-22T21:35:29.613Z,74.37
2022-08-22T21:37:43.427Z,74.59
2022-08-22T21:39:49.015Z,74.77
2022-08-22T21:42:12.382Z,74.83
2022-08-22T21:44:25.822Z,74.75
2022-08-22T21:46:31.201Z,75.02
2022-08-22T21:48:44.044Z,75.24
2022-08-22T21:50:45.615Z,74.56
2022-08-22T21:53:01.653Z,74.38
2022-08-22T21:55:15.805Z,74.50
2022-08-22T21:57:20.418Z,74.17
2022-08-22T21:59:51.717Z,74.67
2022-08-22T22:02:37.351Z,75.06
2022-08-22T22:04:39.302Z,74.50
2022-08-22T22:06:40.934Z,74.38
2022-08-22T22:08:43.009Z,74.23
2022-08-22T22:10:46.885Z,74.36
2022-08-22T22:12:51.827Z,74.76
2022-08-22T22:14:53.622Z,74.84
2022-08-22T22:16:55.326Z,74.76
2022-08-22T22:18:58.189Z,74.45
2022-08-22T22:21:00.448Z,74.54
2022-08-22T22:23:02.283Z,75.02
2022-08-22T22:25:04.879Z,75.18
2022-08-22T22:27:07.625Z,74.38
2022-08-22T22:29:10.782Z,74.11
2022-08-22T22:31:12.463Z,73.77
2022-08-22T22:33:14.258Z,74.14
2022-08-22T22:35:18.753Z,74.12
2022-08-22T22:37:20.604Z,73.85
2022-08-22T22:39:22.689Z,73.42
2022-08-22T22:41:25.846Z,73.84
2022-08-22T22:43:27.817Z,73.85
2022-08-22T22:45:29.879Z,73.80
2022-08-22T22:47:33.059Z,73.67
2022-08-22T22:49:37.569Z,74.01
2022-08-22T22:51:42.447Z,74.43
2022-08-22T22:53:44.916Z,74.94
2022-08-22T22:55:59.769Z,75.26
2022-08-22T22:58:05.592Z,75.28
2022-08-22T23:00:08.197Z,75.56
2022-08-22T23:02:13.353Z,75.52
2022-08-22T23:04:15.019Z,75.49
2022-08-22T23:06:19.834Z,75.29
2022-08-22T23:08:21.845Z,75.28
2022-08-22T23:10:23.695Z,75.18
2022-08-22T23:12:27.277Z,75.46
2022-08-22T23:14:30.240Z,75.67
2022-08-22T23:16:37.000Z,75.76
2022-08-22T23:18:39.058Z,75.64
2022-08-22T23:20:40.739Z,75.60
2022-08-22T23:22:45.059Z,75.56
2022-08-22T23:24:51.709Z,75.29
2022-08-22T23:26:53.366Z,75.52
2022-08-22T23:28:55.917Z,75.82
2022-08-22T23:31:09.242Z,75.94
2022-08-22T23:33:10.928Z,75.61
2022-08-22T23:35:12.785Z,74.95
2022-08-22T23:37:17.835Z,75.16
2022-08-22T23:39:21.132Z,75.56
2022-08-22T23:41:24.078Z,75.24
2022-08-22T23:43:25.726Z,75.43
2022-08-22T23:45:27.394Z,75.22
2022-08-22T23:47:29.118Z,75.15
2022-08-22T23:49:31.524Z,75.17
2022-08-22T23:51:34.194Z,75.62
2022-08-22T23:53:36.016Z,75.48
2022-08-22T23:55:37.717Z,75.75
2022-08-22T23:57:41.547Z,75.64
2022-08-22T23:59:48.023Z,75.41
